Time;durP1;ratioP1;P1;durP2;ratioP2;P2;SDS_P1;SDS_P2;PMS_P1;PMS_P2;Temp;Humidity;BMP_temperature;BMP_pressure;BME280_temperature;BME280_humidity;BME280_pressure;Samples;Min_cycle;Max_cycle;Signal;HPM_P1;HPM_P2
2023/05/02 00:00:09;;;;;;;1.90;1.20;;;14.90;50.00;;;;;;5038888;28;20960;-66
2023/05/02 00:02:35;;;;;;;2.20;1.50;;;14.90;50.30;;;;;;5049414;28;20176;-71
2023/05/02 00:05:00;;;;;;;2.00;1.20;;;15.00;50.00;;;;;;5049510;28;20446;-69
2023/05/02 00:07:26;;;;;;;2.20;1.50;;;14.90;50.40;;;;;;5042479;28;20460;-66
2023/05/02 00:09:52;;;;;;;2.20;1.47;;;14.80;50.20;;;;;;5051610;28;20181;-66
2023/05/02 00:12:17;;;;;;;2.17;1.47;;;14.70;51.10;;;;;;5048717;28;20647;-67
2023/05/02 00:14:43;;;;;;;2.10;1.30;;;15.00;51.00;;;;;;5044452;28;20188;-66
2023/05/02 00:17:16;;;;;;;2.00;1.27;;;14.70;50.80;;;;;;5041241;28;20718;-66
2023/05/02 00:19:41;;;;;;;1.90;1.10;;;14.80;51.40;;;;;;5047255;28;20558;-66
2023/05/02 00:22:07;;;;;;;3.70;1.97;;;14.70;50.80;;;;;;5049086;28;20525;-68
2023/05/02 00:24:32;;;;;;;2.70;1.67;;;14.60;51.20;;;;;;5049616;28;20188;-66
2023/05/02 00:26:58;;;;;;;2.00;1.27;;;14.50;51.70;;;;;;5050811;28;20213;-66
2023/05/02 00:29:24;;;;;;;2.13;1.40;;;14.50;50.60;;;;;;5044069;28;20181;-66
2023/05/02 00:31:49;;;;;;;2.20;1.40;;;14.40;50.70;;;;;;5048057;28;20176;-69
2023/05/02 00:34:15;;;;;;;2.17;1.40;;;14.40;51.40;;;;;;5049923;28;20435;-68
2023/05/02 00:36:41;;;;;;;2.10;1.27;;;14.40;51.10;;;;;;5047725;28;20287;-67
2023/05/02 00:39:06;;;;;;;2.10;1.30;;;14.50;50.70;;;;;;5043696;28;20268;-66
2023/05/02 00:41:32;;;;;;;2.53;1.60;;;14.40;50.60;;;;;;5048539;28;20181;-66
2023/05/02 00:43:58;;;;;;;2.10;1.20;;;14.40;51.20;;;;;;5043973;28;20187;-68
2023/05/02 00:46:23;;;;;;;2.70;1.53;;;14.50;50.10;;;;;;5047091;28;20203;-66
2023/05/02 00:48:49;;;;;;;2.23;1.40;;;14.50;50.00;;;;;;5038584;28;20253;-66
2023/05/02 00:51:15;;;;;;;2.00;1.30;;;14.60;50.00;;;;;;5039291;28;20300;-66
2023/05/02 00:53:41;;;;;;;2.00;1.20;;;14.40;49.90;;;;;;5050411;28;20433;-67
2023/05/02 00:56:08;;;;;;;2.53;1.40;;;14.50;50.20;;;;;;5050923;28;20667;-66
2023/05/02 00:58:34;;;;;;;2.20;1.40;;;14.30;51.50;;;;;;5050740;28;20423;-66
2023/05/02 01:01:28;;;;;;;2.27;1.40;;;14.30;51.10;;;;;;5050839;28;20918;-69
2023/05/02 01:04:03;;;;;;;2.47;1.23;;;14.30;51.40;;;;;;5082189;28;20422;-66
2023/05/02 01:06:41;;;;;;;2.80;1.50;;;14.30;50.60;;;;;;5050864;28;20401;-66
2023/05/02 01:09:52;;;;;;;2.20;1.33;;;14.30;50.40;;;;;;5049656;28;20418;-67
2023/05/02 01:12:31;;;;;;;2.30;1.40;;;14.50;50.50;;;;;;5034469;28;20430;-66
2023/05/02 01:15:01;;;;;;;2.10;1.30;;;14.50;50.10;;;;;;5050118;28;20528;-66
2023/05/02 01:17:31;;;;;;;2.20;1.50;;;14.30;50.60;;;;;;5050618;28;20461;-69
2023/05/02 01:19:59;;;;;;;2.33;1.50;;;14.30;49.90;;;;;;5048543;28;20418;-67
2023/05/02 01:22:30;;;;;;;2.10;1.30;;;14.30;51.00;;;;;;5046951;28;20953;-66
2023/05/02 01:25:19;;;;;;;2.43;1.60;;;14.30;50.70;;;;;;5046234;28;20941;-67
2023/05/02 01:28:06;;;;;;;2.10;1.40;;;14.20;51.60;;;;;;5043494;28;20466;-69
2023/05/02 01:30:34;;;;;;;2.10;1.23;;;14.30;51.70;;;;;;5045066;28;20530;-66
2023/05/02 01:33:02;;;;;;;2.17;1.33;;;14.30;51.80;;;;;;5036909;28;20435;-68
2023/05/02 01:35:29;;;;;;;2.30;1.50;;;14.40;51.00;;;;;;5049304;28;20489;-66
2023/05/02 01:37:57;;;;;;;3.70;2.93;;;14.50;50.60;;;;;;5052821;28;20454;-69
2023/05/02 01:40:25;;;;;;;2.30;1.43;;;14.50;50.60;;;;;;5053170;28;20445;-66
2023/05/02 01:42:52;;;;;;;2.30;1.40;;;14.50;50.20;;;;;;5050122;28;20437;-66
2023/05/02 01:45:20;;;;;;;2.20;1.50;;;14.50;50.50;;;;;;5047626;28;20439;-67
2023/05/02 01:47:47;;;;;;;2.03;1.20;;;14.60;50.50;;;;;;5042894;28;20565;-67
2023/05/02 01:50:19;;;;;;;3.20;1.83;;;14.50;50.30;;;;;;5051390;28;20463;-66
2023/05/02 01:52:46;;;;;;;2.20;1.40;;;14.40;50.10;;;;;;5043800;28;20437;-66
2023/05/02 01:55:14;;;;;;;2.50;1.60;;;14.70;51.30;;;;;;5052737;28;20462;-68
2023/05/02 01:57:43;;;;;;;3.03;1.80;;;14.50;50.80;;;;;;5049273;28;20943;-67
2023/05/02 02:00:10;;;;;;;2.23;1.43;;;14.30;50.60;;;;;;5053384;28;20410;-66
2023/05/02 02:02:36;;;;;;;2.10;1.30;;;14.10;51.00;;;;;;5044549;28;20437;-67
2023/05/02 02:05:04;;;;;;;2.20;1.30;;;14.10;51.40;;;;;;5034055;28;20403;-66
2023/05/02 02:07:30;;;;;;;1.90;1.10;;;14.20;50.80;;;;;;5045736;28;20457;-67
2023/05/02 02:09:56;;;;;;;2.30;1.37;;;14.10;51.00;;;;;;5052561;28;20450;-67
2023/05/02 02:12:27;;;;;;;2.60;1.60;;;14.10;50.60;;;;;;5053807;28;20417;-67
2023/05/02 02:15:07;;;;;;;2.53;1.73;;;14.10;50.10;;;;;;5052230;28;20609;-66
2023/05/02 02:17:46;;;;;;;3.07;1.53;;;14.00;50.50;;;;;;5053733;28;20474;-66
2023/05/02 02:20:13;;;;;;;2.20;1.30;;;14.00;49.90;;;;;;5052755;28;20465;-69
2023/05/02 02:22:41;;;;;;;2.60;1.93;;;14.00;50.10;;;;;;5052916;28;20566;-66
2023/05/02 02:25:11;;;;;;;2.90;1.60;;;14.10;49.70;;;;;;5053774;28;20472;-66
2023/05/02 02:27:37;;;;;;;3.23;2.20;;;13.90;49.30;;;;;;5053436;28;20496;-69
2023/05/02 02:30:03;;;;;;;2.77;1.63;;;13.80;49.20;;;;;;5053157;28;20441;-66
2023/05/02 02:32:29;;;;;;;2.93;1.30;;;13.70;49.90;;;;;;5052566;28;20492;-71
2023/05/02 02:34:55;;;;;;;2.60;1.60;;;13.80;49.70;;;;;;5050153;28;20457;-67
2023/05/02 02:37:29;;;;;;;2.30;1.40;;;13.90;48.90;;;;;;5049593;28;20208;-69
2023/05/02 02:40:22;;;;;;;2.33;1.40;;;14.00;48.60;;;;;;5049252;28;20183;-66
2023/05/02 02:43:06;;;;;;;2.37;1.43;;;13.80;49.30;;;;;;5052101;28;20430;-66
2023/05/02 02:46:03;;;;;;;2.70;1.57;;;13.80;49.40;;;;;;5053397;28;20892;-66
2023/05/02 02:49:10;;;;;;;2.63;1.70;;;13.70;49.40;;;;;;5046063;28;20461;-69
2023/05/02 02:51:52;;;;;;;3.23;1.87;;;13.60;48.90;;;;;;5048341;28;20793;-66
2023/05/02 02:54:34;;;;;;;2.20;1.20;;;13.50;49.70;;;;;;5046186;28;20445;-66
2023/05/02 02:57:22;;;;;;;2.63;1.47;;;13.40;50.10;;;;;;5048613;28;20480;-70
2023/05/02 03:00:01;;;;;;;2.37;1.30;;;13.20;50.60;;;;;;5044029;28;20493;-66
2023/05/02 03:02:31;;;;;;;3.13;1.63;;;13.40;49.80;;;;;;5040135;28;20427;-66
2023/05/02 03:04:57;;;;;;;3.17;1.93;;;13.30;49.50;;;;;;5044922;28;20530;-70
2023/05/02 03:07:26;;;;;;;2.63;1.60;;;13.20;50.40;;;;;;5048736;28;20499;-67
2023/05/02 03:09:51;;;;;;;2.43;1.40;;;13.30;50.00;;;;;;5044148;28;20414;-67
2023/05/02 03:12:17;;;;;;;2.40;1.30;;;13.30;49.70;;;;;;5050890;28;20948;-70
2023/05/02 03:14:42;;;;;;;2.37;1.30;;;13.30;49.70;;;;;;5050879;28;20180;-69
2023/05/02 03:17:08;;;;;;;2.40;1.30;;;13.30;49.20;;;;;;5051577;28;20251;-69
2023/05/02 03:19:34;;;;;;;2.40;1.30;;;13.40;49.00;;;;;;5042075;28;20180;-68
2023/05/02 03:22:00;;;;;;;2.80;1.53;;;13.50;49.50;;;;;;5045767;28;20188;-68
2023/05/02 03:24:28;;;;;;;5.00;2.30;;;13.20;49.50;;;;;;5048808;28;20511;-66
2023/05/02 03:26:58;;;;;;;2.50;1.40;;;13.10;49.80;;;;;;5037922;28;20187;-68
2023/05/02 03:29:24;;;;;;;2.67;1.33;;;13.10;50.00;;;;;;5050914;28;20858;-69
2023/05/02 03:31:50;;;;;;;2.80;1.60;;;13.10;50.50;;;;;;5043892;28;20438;-68
2023/05/02 03:34:18;;;;;;;2.30;1.20;;;13.30;49.70;;;;;;5050163;28;20434;-68
2023/05/02 03:36:44;;;;;;;2.53;1.40;;;13.30;49.30;;;;;;5035857;28;20470;-68
2023/05/02 03:39:09;;;;;;;2.80;1.33;;;13.30;49.20;;;;;;5044998;28;20418;-68
2023/05/02 03:41:35;;;;;;;2.60;1.40;;;13.40;49.00;;;;;;5050207;28;20184;-69
2023/05/02 03:44:01;;;;;;;3.50;2.10;;;13.20;49.50;;;;;;5048187;28;20271;-68
2023/05/02 03:46:26;;;;;;;2.53;1.60;;;13.20;49.80;;;;;;5052270;28;20195;-69
2023/05/02 03:48:52;;;;;;;4.10;2.20;;;13.10;49.40;;;;;;5043719;28;20230;-69
2023/05/02 03:51:17;;;;;;;4.40;2.03;;;13.00;50.50;;;;;;5050918;28;20199;-69
2023/05/02 03:53:43;;;;;;;2.37;1.30;;;13.10;50.70;;;;;;5049860;28;20195;-69
2023/05/02 03:56:08;;;;;;;2.20;1.20;;;13.20;51.00;;;;;;5047263;28;20644;-68
2023/05/02 03:58:35;;;;;;;3.13;1.40;;;13.20;51.80;;;;;;5049264;28;20210;-68
2023/05/02 04:01:00;;;;;;;2.30;1.30;;;13.20;51.20;;;;;;5050504;28;20187;-69
2023/05/02 04:03:27;;;;;;;2.60;1.53;;;13.20;51.50;;;;;;5034454;28;20416;-68
2023/05/02 04:05:53;;;;;;;2.40;1.43;;;13.40;51.30;;;;;;5051877;28;20176;-68
2023/05/02 04:08:18;;;;;;;2.10;1.10;;;13.50;51.20;;;;;;5051795;28;20448;-68
2023/05/02 04:10:44;;;;;;;2.20;1.23;;;13.70;49.10;;;;;;5051209;28;20422;-66
2023/05/02 04:13:10;;;;;;;2.30;1.37;;;13.70;50.00;;;;;;5050230;28;20195;-68
2023/05/02 04:15:36;;;;;;;2.23;1.40;;;13.70;51.00;;;;;;5051593;28;20239;-69
2023/05/02 04:18:02;;;;;;;2.30;1.47;;;13.70;51.80;;;;;;5066388;28;20219;-69
2023/05/02 04:20:28;;;;;;;2.10;1.20;;;13.80;51.30;;;;;;5059209;28;20441;-69
2023/05/02 04:22:54;;;;;;;2.70;1.77;;;13.80;50.90;;;;;;5050723;28;20666;-69
2023/05/02 04:25:19;;;;;;;2.57;1.57;;;13.80;50.90;;;;;;5050298;28;20470;-69
2023/05/02 04:27:45;;;;;;;2.30;1.40;;;13.80;50.60;;;;;;5051366;28;20204;-68
2023/05/02 04:30:11;;;;;;;2.20;1.40;;;13.90;51.30;;;;;;5051161;28;20196;-69
2023/05/02 04:32:37;;;;;;;5.20;2.80;;;14.00;50.20;;;;;;5049288;28;20275;-69
2023/05/02 04:35:03;;;;;;;2.60;1.20;;;14.00;50.60;;;;;;5049637;28;20462;-66
2023/05/02 04:37:29;;;;;;;2.57;1.47;;;13.80;50.90;;;;;;5048481;28;20466;-67
2023/05/02 04:39:54;;;;;;;2.10;1.20;;;13.90;50.80;;;;;;5038607;28;20438;-68
2023/05/02 04:42:20;;;;;;;2.37;1.33;;;14.10;50.80;;;;;;5048677;28;20180;-66
2023/05/02 04:44:47;;;;;;;2.10;1.30;;;14.00;50.60;;;;;;5050543;28;20686;-67
2023/05/02 04:47:12;;;;;;;2.30;1.60;;;14.00;50.50;;;;;;5051127;28;20192;-66
2023/05/02 04:49:38;;;;;;;2.80;1.50;;;13.90;50.50;;;;;;5051244;28;20569;-66
2023/05/02 04:52:04;;;;;;;2.17;1.30;;;13.90;51.00;;;;;;5055584;28;20655;-69
2023/05/02 04:54:33;;;;;;;2.30;1.50;;;14.00;50.90;;;;;;5049832;28;20667;-67
2023/05/02 04:57:02;;;;;;;2.10;1.30;;;13.90;51.30;;;;;;5051031;28;20476;-67
2023/05/02 04:59:28;;;;;;;2.00;1.20;;;14.00;51.40;;;;;;5041897;28;20504;-66
2023/05/02 05:01:54;;;;;;;2.93;1.60;;;14.10;51.60;;;;;;5044931;28;20915;-69
2023/05/02 05:04:19;;;;;;;1.93;1.17;;;14.30;50.70;;;;;;5048753;28;20473;-66
2023/05/02 05:06:47;;;;;;;2.50;1.57;;;14.10;51.00;;;;;;5050998;28;20263;-66
2023/05/02 05:09:12;;;;;;;1.90;1.20;;;14.10;51.50;;;;;;5067783;28;20179;-67
2023/05/02 05:11:38;;;;;;;2.10;1.30;;;14.20;51.00;;;;;;5069738;28;20417;-66
2023/05/02 05:14:04;;;;;;;2.37;1.53;;;14.40;50.20;;;;;;5062793;28;20184;-66
2023/05/02 05:16:30;;;;;;;2.20;1.50;;;14.40;50.70;;;;;;5049055;28;20477;-66
2023/05/02 05:18:56;;;;;;;1.93;1.20;;;14.30;50.70;;;;;;5050836;28;20290;-66
2023/05/02 05:21:21;;;;;;;1.90;1.20;;;14.30;51.30;;;;;;5050798;28;20961;-66
2023/05/02 05:23:47;;;;;;;2.40;1.70;;;14.50;50.50;;;;;;5050142;28;20176;-66
2023/05/02 05:26:15;;;;;;;2.00;1.30;;;14.70;49.90;;;;;;5050725;28;20663;-67
2023/05/02 05:28:40;;;;;;;2.03;1.30;;;14.80;50.00;;;;;;5050670;28;21066;-66
2023/05/02 05:31:07;;;;;;;4.57;2.23;;;14.70;50.30;;;;;;5050824;28;20497;-66
2023/05/02 05:33:37;;;;;;;3.33;1.77;;;14.80;49.90;;;;;;5049996;28;20184;-69
2023/05/02 05:36:07;;;;;;;2.03;1.33;;;14.90;50.80;;;;;;5048441;28;20461;-66
2023/05/02 05:38:33;;;;;;;3.37;2.10;;;14.90;48.80;;;;;;5050632;28;21005;-66
2023/05/02 05:40:58;;;;;;;2.20;1.50;;;15.00;49.70;;;;;;5049632;28;20873;-66
2023/05/02 05:43:25;;;;;;;3.83;2.23;;;15.20;48.10;;;;;;5041184;28;20464;-66
2023/05/02 05:45:54;;;;;;;2.73;1.60;;;15.20;48.50;;;;;;5048678;28;20185;-66
2023/05/02 05:48:20;;;;;;;3.07;1.80;;;15.30;49.40;;;;;;5037656;28;20463;-67
2023/05/02 05:50:46;;;;;;;2.50;1.70;;;15.40;48.50;;;;;;5040496;28;20874;-66
2023/05/02 05:53:12;;;;;;;2.43;1.50;;;15.50;48.00;;;;;;5048660;28;20522;-66
2023/05/02 05:55:38;;;;;;;3.43;1.83;;;15.40;48.40;;;;;;5044171;28;20212;-66
2023/05/02 05:58:04;;;;;;;2.17;1.43;;;15.30;49.70;;;;;;5046662;28;20471;-66
2023/05/02 06:00:33;;;;;;;2.43;1.50;;;15.40;49.70;;;;;;5038880;28;20494;-66
2023/05/02 06:02:58;;;;;;;2.20;1.50;;;15.60;48.70;;;;;;5047749;28;20416;-68
2023/05/02 06:05:24;;;;;;;2.63;1.77;;;15.70;48.20;;;;;;5047725;28;20448;-67
2023/05/02 06:07:50;;;;;;;2.50;1.90;;;15.60;48.40;;;;;;5039493;28;20236;-69
2023/05/02 06:10:15;;;;;;;2.70;2.03;;;15.50;47.30;;;;;;5049965;28;20235;-66
2023/05/02 06:12:41;;;;;;;3.10;2.13;;;15.30;48.30;;;;;;5049973;28;20190;-66
2023/05/02 06:15:07;;;;;;;2.40;1.63;;;15.20;48.80;;;;;;5050214;28;20209;-67
2023/05/02 06:17:33;;;;;;;2.07;1.50;;;15.10;49.00;;;;;;5053211;28;20232;-66
2023/05/02 06:19:58;;;;;;;5.60;2.60;;;15.10;49.60;;;;;;5052747;28;20465;-70
2023/05/02 06:22:24;;;;;;;4.27;2.20;;;15.00;51.20;;;;;;5051793;28;20190;-66
2023/05/02 06:24:49;;;;;;;2.47;1.80;;;15.40;50.30;;;;;;5041397;28;20197;-69
2023/05/02 06:27:15;;;;;;;2.77;2.03;;;15.30;49.30;;;;;;5050422;28;20631;-67
2023/05/02 06:29:41;;;;;;;2.27;1.70;;;15.30;49.80;;;;;;5049217;28;20337;-66
2023/05/02 06:32:06;;;;;;;3.20;2.50;;;15.30;49.50;;;;;;5049076;28;20211;-70
2023/05/02 06:34:32;;;;;;;2.13;1.57;;;15.60;48.80;;;;;;5042051;28;20196;-66
2023/05/02 06:36:58;;;;;;;2.80;1.80;;;15.70;47.30;;;;;;5044845;28;20238;-69
2023/05/02 06:39:24;;;;;;;2.90;2.03;;;15.90;48.00;;;;;;5044607;28;20572;-66
2023/05/02 06:41:50;;;;;;;2.10;1.43;;;15.90;47.10;;;;;;5045375;28;20179;-68
2023/05/02 06:44:15;;;;;;;2.17;1.67;;;15.50;47.10;;;;;;5044123;28;20443;-66
2023/05/02 06:46:41;;;;;;;3.50;2.00;;;15.60;49.30;;;;;;5048502;28;20203;-66
2023/05/02 06:49:07;;;;;;;2.70;1.80;;;16.10;46.50;;;;;;5041169;28;20602;-67
2023/05/02 06:51:32;;;;;;;3.30;2.50;;;16.40;44.60;;;;;;5042324;28;20434;-66
2023/05/02 06:53:58;;;;;;;2.27;1.60;;;16.30;44.80;;;;;;5048503;28;20189;-67
2023/05/02 06:56:25;;;;;;;2.50;1.93;;;15.80;47.80;;;;;;5042730;28;20243;-67
2023/05/02 06:58:51;;;;;;;2.73;1.80;;;15.70;47.60;;;;;;5047050;28;20987;-66
2023/05/02 07:01:16;;;;;;;2.10;1.60;;;15.30;48.40;;;;;;5045040;28;20442;-66
2023/05/02 07:03:42;;;;;;;2.10;1.50;;;15.00;49.90;;;;;;5042561;28;20435;-69
2023/05/02 07:06:07;;;;;;;2.07;1.30;;;16.10;48.40;;;;;;5049687;28;20214;-68
2023/05/02 07:08:34;;;;;;;2.10;1.40;;;16.20;45.50;;;;;;5049245;28;20200;-69
2023/05/02 07:11:00;;;;;;;2.43;1.80;;;16.20;47.40;;;;;;5045834;28;20447;-67
2023/05/02 07:13:26;;;;;;;2.10;1.60;;;16.40;44.10;;;;;;5048339;28;20447;-68
2023/05/02 07:15:52;;;;;;;2.00;1.47;;;16.10;46.20;;;;;;5050382;28;20466;-75
2023/05/02 07:18:18;;;;;;;2.60;1.83;;;16.00;45.60;;;;;;5051263;28;20299;-74
2023/05/02 07:20:43;;;;;;;2.33;1.73;;;15.90;47.90;;;;;;5051361;28;20508;-74
2023/05/02 07:23:09;;;;;;;2.70;1.60;;;16.10;47.40;;;;;;5050050;28;20555;-73
2023/05/02 07:25:35;;;;;;;2.00;1.37;;;16.20;46.00;;;;;;5043684;28;20191;-73
2023/05/02 07:28:01;;;;;;;2.70;1.93;;;16.00;46.20;;;;;;5051571;28;20265;-69
2023/05/02 07:30:26;;;;;;;2.43;1.80;;;15.60;47.90;;;;;;5051861;28;20442;-68
2023/05/02 07:32:52;;;;;;;3.27;1.70;;;15.40;48.60;;;;;;5047375;28;20191;-68
2023/05/02 07:35:18;;;;;;;2.50;1.90;;;15.50;48.10;;;;;;5050437;28;20208;-68
2023/05/02 07:37:43;;;;;;;2.37;1.63;;;15.50;47.80;;;;;;5048195;28;20204;-68
2023/05/02 07:40:09;;;;;;;2.30;1.60;;;15.80;48.90;;;;;;5031623;28;20692;-68
2023/05/02 07:42:35;;;;;;;2.10;1.50;;;16.50;46.90;;;;;;5047910;28;20188;-69
2023/05/02 07:45:01;;;;;;;2.30;1.50;;;17.00;44.50;;;;;;5048066;28;20435;-70
2023/05/02 07:47:26;;;;;;;2.10;1.50;;;17.00;43.30;;;;;;5043671;28;20641;-71
2023/05/02 07:49:53;;;;;;;3.17;2.07;;;16.50;44.20;;;;;;5052659;28;20451;-69
2023/05/02 07:52:19;;;;;;;2.00;1.37;;;15.50;45.00;;;;;;5050367;28;20222;-69
2023/05/02 07:54:47;;;;;;;2.60;1.87;;;15.40;47.20;;;;;;5038833;28;20419;-69
2023/05/02 07:57:12;;;;;;;2.40;1.60;;;16.10;44.60;;;;;;5032137;28;20471;-69
2023/05/02 07:59:38;;;;;;;2.40;1.60;;;15.80;46.80;;;;;;5033459;28;20434;-68
2023/05/02 08:02:04;;;;;;;2.60;1.80;;;15.40;45.20;;;;;;5050754;28;20191;-69
2023/05/02 08:04:30;;;;;;;4.47;2.70;;;15.40;43.90;;;;;;5043603;28;20188;-69
2023/05/02 08:06:55;;;;;;;3.70;2.77;;;15.20;43.90;;;;;;5030073;28;20177;-68
2023/05/02 08:09:21;;;;;;;2.50;1.83;;;15.50;44.60;;;;;;5051225;28;20672;-68
2023/05/02 08:11:47;;;;;;;4.33;2.07;;;15.80;42.20;;;;;;5038093;28;20279;-68
2023/05/02 08:14:14;;;;;;;2.70;2.10;;;16.10;41.90;;;;;;5040651;28;20191;-68
2023/05/02 08:16:40;;;;;;;2.30;1.40;;;15.50;43.60;;;;;;5034927;28;20201;-68
2023/05/02 08:19:06;;;;;;;2.70;1.77;;;15.70;43.70;;;;;;5051398;28;20927;-67
2023/05/02 08:21:32;;;;;;;2.30;1.60;;;16.00;42.60;;;;;;5051476;28;20441;-68
2023/05/02 08:23:58;;;;;;;2.50;1.77;;;15.50;42.40;;;;;;5050312;28;20179;-68
2023/05/02 08:26:24;;;;;;;2.90;2.00;;;15.20;44.40;;;;;;5049534;28;20499;-69
2023/05/02 08:28:54;;;;;;;3.10;2.07;;;15.00;46.60;;;;;;5044299;28;20496;-69
2023/05/02 08:31:20;;;;;;;2.90;1.67;;;14.60;47.80;;;;;;5048522;28;20493;-68
2023/05/02 08:33:46;;;;;;;2.53;1.83;;;14.70;46.80;;;;;;5044663;28;20448;-67
2023/05/02 08:36:13;;;;;;;3.20;1.70;;;14.20;50.10;;;;;;5041825;28;20498;-68
2023/05/02 08:38:40;;;;;;;3.20;2.10;;;15.10;47.20;;;;;;5031382;28;20443;-69
2023/05/02 08:41:17;;;;;;;2.53;1.80;;;15.60;44.60;;;;;;5038866;28;21219;-68
2023/05/02 08:43:44;;;;;;;3.70;1.90;;;15.50;45.70;;;;;;5048730;28;20937;-69
2023/05/02 08:46:11;;;;;;;3.50;1.70;;;15.80;44.50;;;;;;5050791;28;20500;-69
2023/05/02 08:48:41;;;;;;;2.37;1.70;;;15.80;43.00;;;;;;5046412;28;20941;-69
2023/05/02 08:51:09;;;;;;;2.60;1.80;;;15.70;43.90;;;;;;5051217;28;20408;-69
2023/05/02 08:53:36;;;;;;;3.30;2.33;;;15.50;43.60;;;;;;5046926;28;20952;-69
2023/05/02 08:56:03;;;;;;;2.60;1.80;;;15.70;43.00;;;;;;5040272;28;20462;-69
2023/05/02 08:58:29;;;;;;;6.93;3.00;;;15.70;45.80;;;;;;5047396;28;20456;-69
2023/05/02 09:00:59;;;;;;;2.20;1.60;;;16.30;41.40;;;;;;5051031;28;20452;-70
2023/05/02 09:03:32;;;;;;;3.10;1.93;;;16.50;41.50;;;;;;5047971;28;20433;-71
2023/05/02 09:06:04;;;;;;;2.47;1.77;;;17.20;42.00;;;;;;5044108;28;20442;-70
2023/05/02 09:08:30;;;;;;;2.70;2.13;;;17.30;39.10;;;;;;5042548;28;20431;-71
2023/05/02 09:10:56;;;;;;;3.00;2.13;;;16.80;40.10;;;;;;5050120;28;20422;-71
2023/05/02 09:13:54;;;;;;;2.40;1.70;;;17.10;40.70;;;;;;5048346;28;20271;-71
2023/05/02 09:16:25;;;;;;;3.30;1.93;;;17.30;39.90;;;;;;5019306;28;20522;-70
2023/05/02 09:18:55;;;;;;;3.67;2.60;;;16.80;40.10;;;;;;5014903;28;20475;-73
2023/05/02 09:21:25;;;;;;;2.73;2.03;;;17.10;39.20;;;;;;5021863;28;20439;-72
2023/05/02 09:23:56;;;;;;;3.50;2.50;;;18.20;40.00;;;;;;5020794;28;20440;-72
2023/05/02 09:26:28;;;;;;;3.83;2.37;;;18.00;39.80;;;;;;5021490;28;20412;-71
2023/05/02 09:28:55;;;;;;;4.20;2.37;;;18.50;38.90;;;;;;5024700;28;20499;-72
2023/05/02 09:31:26;;;;;;;3.27;2.33;;;19.00;37.00;;;;;;5010099;28;20480;-72
2023/05/02 09:33:52;;;;;;;3.60;2.10;;;19.50;36.40;;;;;;5010246;28;20417;-72
2023/05/02 09:36:20;;;;;;;3.43;2.47;;;19.70;33.60;;;;;;5027306;28;20542;-70
2023/05/02 09:38:47;;;;;;;4.00;2.57;;;19.90;32.80;;;;;;5024515;28;20482;-70
2023/05/02 09:41:13;;;;;;;4.73;2.73;;;18.70;35.10;;;;;;5027861;28;20921;-70
2023/05/02 09:43:40;;;;;;;3.73;2.20;;;18.90;34.80;;;;;;5027736;28;20426;-70
2023/05/02 09:46:09;;;;;;;3.20;1.90;;;19.30;37.60;;;;;;5028243;28;20457;-69
2023/05/02 09:48:55;;;;;;;3.73;2.57;;;19.90;32.20;;;;;;5028373;28;21018;-69
2023/05/02 09:51:23;;;;;;;3.53;2.40;;;19.00;34.40;;;;;;5037358;28;20435;-69
2023/05/02 09:53:49;;;;;;;4.13;2.53;;;18.80;34.90;;;;;;5053496;28;20438;-69
2023/05/02 09:56:14;;;;;;;4.00;2.53;;;19.50;35.00;;;;;;5054460;28;21140;-69
2023/05/02 09:58:40;;;;;;;7.60;2.50;;;19.80;33.50;;;;;;5053991;28;21195;-69
2023/05/02 10:01:06;;;;;;;3.53;2.47;;;20.20;31.70;;;;;;5054215;28;20439;-69
2023/05/02 10:03:36;;;;;;;4.63;2.70;;;20.10;33.90;;;;;;5052534;28;20180;-69
2023/05/02 10:06:07;;;;;;;3.57;2.10;;;20.20;31.80;;;;;;5054337;28;20254;-70
2023/05/02 10:08:33;;;;;;;3.70;2.50;;;20.50;31.60;;;;;;5053720;28;20527;-69
2023/05/02 10:11:04;;;;;;;4.00;2.50;;;20.20;32.30;;;;;;5050103;28;20440;-69
2023/05/02 10:13:33;;;;;;;6.43;2.80;;;20.10;32.50;;;;;;5053718;28;20447;-69
2023/05/02 10:16:04;;;;;;;3.93;2.83;;;20.50;30.60;;;;;;5054937;28;20464;-69
2023/05/02 10:18:48;;;;;;;5.57;2.93;;;20.40;30.60;;;;;;5053932;28;20837;-69
2023/05/02 10:21:28;;;;;;;4.37;2.60;;;19.80;30.90;;;;;;5053902;28;20444;-69
2023/05/02 10:23:55;;;;;;;4.53;2.73;;;19.40;31.80;;;;;;5046145;28;20473;-69
2023/05/02 10:26:24;;;;;;;3.97;2.70;;;18.80;33.40;;;;;;5054559;28;20452;-68
2023/05/02 10:28:50;;;;;;;4.07;2.50;;;19.30;35.00;;;;;;5054274;28;20433;-69
2023/05/02 10:31:17;;;;;;;3.80;2.40;;;19.70;32.90;;;;;;5053808;28;20404;-69
2023/05/02 10:33:45;;;;;;;4.27;2.63;;;20.80;32.10;;;;;;5052526;28;20448;-69
2023/05/02 10:36:14;;;;;;;4.50;2.33;;;21.60;27.90;;;;;;5053432;28;20830;-69
2023/05/02 10:38:40;;;;;;;3.90;2.10;;;21.40;28.40;;;;;;5053779;28;20533;-70
2023/05/02 10:41:14;;;;;;;4.20;2.53;;;21.10;29.00;;;;;;5054245;28;20417;-69
2023/05/02 10:43:44;;;;;;;4.33;2.43;;;21.50;27.80;;;;;;5052223;28;20440;-69
2023/05/02 10:46:32;;;;;;;5.77;3.00;;;21.40;28.90;;;;;;5054188;28;20457;-69
2023/05/02 10:49:11;;;;;;;6.93;3.27;;;20.80;28.30;;;;;;5034558;28;20427;-69
2023/05/02 10:51:40;;;;;;;5.60;3.50;;;20.60;29.80;;;;;;5034574;28;20840;-70
2023/05/02 10:54:18;;;;;;;4.10;2.43;;;21.20;30.10;;;;;;5042116;28;20439;-69
2023/05/02 10:57:05;;;;;;;4.50;2.73;;;22.10;28.10;;;;;;5052419;28;20465;-69
2023/05/02 10:59:33;;;;;;;3.93;2.47;;;22.50;29.40;;;;;;5053464;28;20419;-70
2023/05/02 11:02:00;;;;;;;5.10;2.70;;;22.60;27.80;;;;;;5052333;28;20427;-69
2023/05/02 11:04:45;;;;;;;4.07;2.23;;;22.20;26.20;;;;;;5052211;28;20435;-69
2023/05/02 11:07:18;;;;;;;4.13;2.30;;;22.70;26.20;;;;;;5052879;28;20567;-69
2023/05/02 11:09:43;;;;;;;4.33;2.30;;;22.80;26.70;;;;;;5033428;28;20406;-69
2023/05/02 11:12:09;;;;;;;4.70;2.53;;;23.50;27.70;;;;;;5033053;28;20411;-68
2023/05/02 11:14:37;;;;;;;5.80;2.70;;;22.50;26.70;;;;;;5033928;28;20172;-68
2023/05/02 11:17:03;;;;;;;6.20;2.90;;;21.40;27.30;;;;;;5050594;28;20661;-68
2023/05/02 11:19:52;;;;;;;4.70;2.80;;;21.80;28.00;;;;;;5051423;28;20733;-68
2023/05/02 11:22:18;;;;;;;5.80;2.77;;;22.20;27.50;;;;;;5052860;28;20172;-69
2023/05/02 11:24:49;;;;;;;3.90;2.20;;;23.10;27.30;;;;;;5050658;28;20414;-70
2023/05/02 11:27:32;;;;;;;4.80;2.47;;;24.00;24.90;;;;;;5050709;28;20846;-69
2023/05/02 11:30:05;;;;;;;7.30;2.57;;;24.40;23.90;;;;;;5045275;28;20497;-68
2023/05/02 11:32:47;;;;;;;5.40;2.87;;;24.40;26.50;;;;;;5052227;28;20530;-70
2023/05/02 11:35:25;;;;;;;4.33;2.60;;;24.80;23.30;;;;;;5052535;28;20898;-68
2023/05/02 11:38:02;;;;;;;6.03;3.30;;;23.20;24.10;;;;;;5051127;28;20493;-69
2023/05/02 11:40:28;;;;;;;4.77;2.70;;;22.40;25.20;;;;;;5052163;28;20917;-68
2023/05/02 11:42:55;;;;;;;5.30;2.50;;;22.30;27.60;;;;;;5051672;28;21039;-68
2023/05/02 11:45:22;;;;;;;7.77;3.60;;;21.80;26.10;;;;;;5052279;28;20406;-68
2023/05/02 11:47:49;;;;;;;5.87;3.23;;;20.80;27.90;;;;;;5050816;28;20877;-68
2023/05/02 11:50:16;;;;;;;6.10;2.57;;;20.60;28.10;;;;;;5051838;28;20512;-67
2023/05/02 11:52:43;;;;;;;5.13;2.27;;;20.90;28.40;;;;;;5031525;28;20794;-67
2023/05/02 11:55:14;;;;;;;4.90;2.40;;;21.60;28.00;;;;;;5031976;28;20465;-71
2023/05/02 11:57:41;;;;;;;5.63;3.10;;;22.20;26.50;;;;;;5037135;28;20898;-70
2023/05/02 12:00:09;;;;;;;4.87;2.53;;;22.40;25.80;;;;;;5058002;28;20434;-72
2023/05/02 12:02:40;;;;;;;4.77;2.57;;;22.50;26.40;;;;;;5055680;28;20433;-71
2023/05/02 12:05:07;;;;;;;4.00;2.13;;;22.20;26.70;;;;;;5053476;28;20409;-69
2023/05/02 12:07:41;;;;;;;4.73;2.40;;;21.30;26.90;;;;;;5052074;28;20453;-69
2023/05/02 12:10:08;;;;;;;6.07;2.47;;;19.50;28.20;;;;;;5051474;28;20492;-69
2023/05/02 12:12:34;;;;;;;4.70;2.47;;;19.40;28.00;;;;;;5051087;28;20508;-75
2023/05/02 12:15:08;;;;;;;4.77;2.40;;;18.90;28.10;;;;;;5052477;28;20952;-74
2023/05/02 12:17:37;;;;;;;4.10;2.20;;;19.60;29.50;;;;;;5052176;28;20491;-72
2023/05/02 12:20:05;;;;;;;4.50;2.57;;;20.70;26.90;;;;;;5050995;28;20429;-74
2023/05/02 12:22:31;;;;;;;4.87;2.07;;;21.00;27.00;;;;;;5050852;28;20491;-72
2023/05/02 12:24:57;;;;;;;7.93;2.73;;;20.80;27.20;;;;;;5052491;28;20407;-73
2023/05/02 12:27:23;;;;;;;4.47;2.10;;;21.30;26.90;;;;;;5057767;28;20426;-73
2023/05/02 12:29:50;;;;;;;4.07;2.03;;;22.00;25.30;;;;;;5056918;28;20417;-73
2023/05/02 12:32:28;;;;;;;5.70;3.07;;;22.40;25.70;;;;;;5053638;28;20438;-69
2023/05/02 12:34:54;;;;;;;5.27;3.03;;;22.90;25.90;;;;;;5042856;28;20781;-69
2023/05/02 12:37:24;;;;;;;4.30;2.10;;;22.90;23.70;;;;;;5052205;28;20474;-69
2023/05/02 12:39:50;;;;;;;5.07;2.50;;;23.00;23.30;;;;;;5051689;28;20714;-69
2023/05/02 12:42:18;;;;;;;4.20;2.30;;;23.70;24.40;;;;;;5050359;28;20917;-69
2023/05/02 12:44:46;;;;;;;4.30;2.30;;;24.80;22.60;;;;;;5043253;28;20407;-70
2023/05/02 12:47:13;;;;;;;4.37;2.17;;;26.70;22.30;;;;;;5051290;28;20430;-70
2023/05/02 12:49:48;;;;;;;3.90;2.10;;;27.30;19.40;;;;;;5051135;28;20828;-70
2023/05/02 12:52:13;;;;;;;5.27;2.30;;;28.20;17.10;;;;;;5050530;28;20429;-68
2023/05/02 12:54:39;;;;;;;4.77;2.10;;;29.20;18.10;;;;;;5050477;28;20422;-69